Time;durP1;ratioP1;P1;durP2;ratioP2;P2;SDS_P1;SDS_P2;PMS_P1;PMS_P2;Temp;Humidity;BMP_temperature;BMP_pressure;BME280_temperature;BME280_humidity;BME280_pressure;Samples;Min_cycle;Max_cycle;Signal;HPM_P1;HPM_P2
2022/07/11 00:01:45;;;;;;;3.10;1.35;;;24.30;58.70;;;;;;4917591;29;20491;-78
2022/07/11 00:04:11;;;;;;;7.82;1.45;;;24.30;59.30;;;;;;4917057;29;20518;-78
2022/07/11 00:06:36;;;;;;;4.95;1.27;;;24.20;59.10;;;;;;4915876;29;20459;-78
2022/07/11 00:09:02;;;;;;;5.07;1.73;;;24.20;59.30;;;;;;4915526;29;20404;-78
2022/07/11 00:11:28;;;;;;;2.58;1.40;;;24.20;59.60;;;;;;4917186;29;21207;-78
2022/07/11 00:13:53;;;;;;;2.42;1.40;;;24.10;59.50;;;;;;4916993;29;20433;-78
2022/07/11 00:16:19;;;;;;;2.88;1.73;;;24.10;60.60;;;;;;4917019;29;20028;-78
2022/07/11 00:18:45;;;;;;;3.53;1.48;;;23.90;60.40;;;;;;4916968;29;20036;-77
2022/07/11 00:21:11;;;;;;;3.47;1.40;;;23.90;60.90;;;;;;4915507;29;20062;-78
2022/07/11 00:23:37;;;;;;;3.40;1.45;;;23.90;60.90;;;;;;4916102;29;20499;-78
2022/07/11 00:26:03;;;;;;;3.95;1.83;;;23.80;61.20;;;;;;4916547;29;20100;-78
2022/07/11 00:28:29;;;;;;;2.95;1.23;;;23.80;61.50;;;;;;4916558;29;20032;-78
2022/07/11 00:30:54;;;;;;;2.83;1.40;;;23.80;61.60;;;;;;4916736;29;20028;-78
2022/07/11 00:33:20;;;;;;;4.82;1.50;;;23.70;62.50;;;;;;4916702;29;20496;-78
2022/07/11 00:35:46;;;;;;;6.90;1.40;;;23.60;62.70;;;;;;4917148;29;20020;-78
2022/07/11 00:38:12;;;;;;;2.47;1.40;;;23.60;63.50;;;;;;4916233;29;20051;-78
2022/07/11 00:40:38;;;;;;;6.53;1.60;;;23.60;63.70;;;;;;4916533;29;20028;-77
2022/07/11 00:43:04;;;;;;;4.45;1.50;;;23.60;63.90;;;;;;4917057;29;20036;-78
2022/07/11 00:45:30;;;;;;;4.53;1.92;;;23.50;64.60;;;;;;4916740;29;20027;-78
2022/07/11 00:47:56;;;;;;;5.43;1.65;;;23.40;64.30;;;;;;4916826;29;20040;-78
2022/07/11 00:50:23;;;;;;;6.07;1.50;;;23.40;65.40;;;;;;4916633;29;20044;-78
2022/07/11 00:52:51;;;;;;;3.83;1.70;;;23.30;65.90;;;;;;4916480;29;20076;-78
2022/07/11 00:55:18;;;;;;;6.18;1.50;;;23.30;66.10;;;;;;4916730;29;20441;-77
2022/07/11 00:57:44;;;;;;;2.95;1.50;;;23.30;66.10;;;;;;4916653;29;20377;-78
2022/07/11 01:00:11;;;;;;;5.00;1.52;;;23.20;66.90;;;;;;4916616;29;20025;-78
2022/07/11 01:02:36;;;;;;;4.85;1.85;;;23.10;66.50;;;;;;4916671;29;20590;-79
2022/07/11 01:05:03;;;;;;;3.08;1.40;;;23.10;67.60;;;;;;4916632;29;20052;-79
2022/07/11 01:07:30;;;;;;;4.72;1.67;;;23.10;67.80;;;;;;4916002;29;20057;-79
2022/07/11 01:09:55;;;;;;;3.42;1.60;;;23.00;67.60;;;;;;4916677;29;20028;-79
2022/07/11 01:12:22;;;;;;;3.10;1.67;;;22.90;67.70;;;;;;4916399;29;20039;-79
2022/07/11 01:14:52;;;;;;;7.93;1.63;;;22.90;67.80;;;;;;4916623;29;20428;-78
2022/07/11 01:17:18;;;;;;;4.22;1.52;;;22.90;68.10;;;;;;4916608;29;20536;-79
2022/07/11 01:19:43;;;;;;;7.35;1.90;;;22.80;68.60;;;;;;4916459;29;20099;-78
2022/07/11 01:22:11;;;;;;;4.20;1.92;;;22.80;69.20;;;;;;4916211;29;20040;-79
2022/07/11 01:24:37;;;;;;;6.22;1.90;;;22.80;68.70;;;;;;4916547;29;20025;-79
2022/07/11 01:27:04;;;;;;;6.45;2.00;;;22.80;69.30;;;;;;4915817;29;20559;-79
2022/07/11 01:29:29;;;;;;;5.05;1.67;;;22.80;69.40;;;;;;4916446;29;20040;-79
2022/07/11 01:31:55;;;;;;;6.13;2.08;;;22.70;69.60;;;;;;4916150;29;20035;-79
2022/07/11 01:34:21;;;;;;;4.63;1.65;;;22.60;69.50;;;;;;4916644;29;20111;-78
2022/07/11 01:36:46;;;;;;;8.65;2.20;;;22.70;70.10;;;;;;4915925;29;20116;-79
2022/07/11 01:39:12;;;;;;;3.58;1.70;;;22.60;70.30;;;;;;4918352;29;20115;-78
2022/07/11 01:41:38;;;;;;;2.88;1.67;;;22.50;70.90;;;;;;4918943;29;20028;-79
2022/07/11 01:44:03;;;;;;;4.80;1.55;;;22.50;70.80;;;;;;4919555;29;20070;-79
2022/07/11 01:46:29;;;;;;;6.22;1.95;;;22.50;71.10;;;;;;4919499;29;20488;-79
2022/07/11 01:48:54;;;;;;;5.80;2.03;;;22.50;71.00;;;;;;4919363;29;20111;-79
2022/07/11 01:51:23;;;;;;;4.18;2.10;;;22.50;71.60;;;;;;4919509;29;20124;-79
2022/07/11 01:53:48;;;;;;;3.70;1.85;;;22.50;71.90;;;;;;4919493;29;20028;-79
2022/07/11 01:56:14;;;;;;;6.03;1.60;;;22.40;71.70;;;;;;4919624;29;20036;-79
2022/07/11 01:58:40;;;;;;;4.95;1.90;;;22.40;71.80;;;;;;4919409;29;20416;-79
2022/07/11 02:01:05;;;;;;;3.63;1.90;;;22.10;72.40;;;;;;4919302;29;20396;-78
2022/07/11 02:03:31;;;;;;;4.10;1.65;;;21.90;72.80;;;;;;4919085;29;20024;-78
2022/07/11 02:05:57;;;;;;;3.47;1.70;;;21.80;73.00;;;;;;4918936;29;20072;-79
2022/07/11 02:08:22;;;;;;;2.78;1.70;;;21.70;73.60;;;;;;4919435;29;20032;-78
2022/07/11 02:10:51;;;;;;;7.00;1.85;;;21.50;74.60;;;;;;4919065;29;20032;-78
2022/07/11 02:13:19;;;;;;;2.50;1.50;;;21.30;76.00;;;;;;4919194;29;20021;-79
2022/07/11 02:15:46;;;;;;;5.18;2.10;;;21.40;76.60;;;;;;4918868;29;20055;-78
2022/07/11 02:18:13;;;;;;;5.63;2.05;;;21.40;77.10;;;;;;4919363;29;20036;-79
2022/07/11 02:20:40;;;;;;;4.57;1.60;;;21.30;76.90;;;;;;4918947;29;20038;-79
2022/07/11 02:23:07;;;;;;;5.70;2.20;;;21.40;77.10;;;;;;4919159;29;20043;-78
2022/07/11 02:25:35;;;;;;;5.85;2.00;;;21.50;76.90;;;;;;4918438;29;20067;-79
2022/07/11 02:28:01;;;;;;;9.75;1.90;;;21.50;76.00;;;;;;4918163;29;20496;-78
2022/07/11 02:30:27;;;;;;;4.10;1.85;;;21.30;77.30;;;;;;4919056;29;20024;-78
2022/07/11 02:32:53;;;;;;;3.72;1.67;;;21.20;77.60;;;;;;4918967;29;20032;-78
2022/07/11 02:35:19;;;;;;;6.10;1.83;;;21.40;77.30;;;;;;4918515;29;20047;-79
2022/07/11 02:37:44;;;;;;;3.97;1.77;;;21.50;76.80;;;;;;4918433;29;20025;-78
2022/07/11 02:40:11;;;;;;;8.15;1.85;;;21.60;77.00;;;;;;4918621;29;20036;-79
2022/07/11 02:42:37;;;;;;;3.42;1.80;;;21.60;77.10;;;;;;4918256;29;20106;-78
2022/07/11 02:45:04;;;;;;;2.92;1.33;;;21.60;76.20;;;;;;4918731;29;20115;-79
2022/07/11 02:47:29;;;;;;;3.83;1.42;;;21.50;76.20;;;;;;4918678;29;20028;-78
2022/07/11 02:49:55;;;;;;;2.50;1.50;;;21.40;76.80;;;;;;4915586;29;20369;-79
2022/07/11 02:52:21;;;;;;;5.07;1.70;;;21.30;76.70;;;;;;4918114;29;20024;-78
2022/07/11 02:54:46;;;;;;;3.42;1.70;;;21.40;77.70;;;;;;4918209;29;20024;-79
2022/07/11 02:57:12;;;;;;;5.03;1.50;;;21.40;77.70;;;;;;4918441;29;20039;-78
2022/07/11 02:59:37;;;;;;;6.97;1.52;;;21.40;77.90;;;;;;4918251;29;20043;-79
2022/07/11 03:02:04;;;;;;;2.63;1.52;;;21.40;78.10;;;;;;4918128;29;20028;-78
2022/07/11 03:04:33;;;;;;;5.88;1.75;;;21.30;78.00;;;;;;4917922;29;20028;-79
2022/07/11 03:07:00;;;;;;;3.75;1.60;;;21.30;78.10;;;;;;4918347;29;20059;-78
2022/07/11 03:09:26;;;;;;;2.33;1.35;;;21.30;77.70;;;;;;4918028;29;20060;-78
2022/07/11 03:11:53;;;;;;;3.42;1.33;;;21.20;77.40;;;;;;4917736;29;20095;-79
2022/07/11 03:14:19;;;;;;;4.03;1.80;;;21.10;77.30;;;;;;4918123;29;20091;-79
2022/07/11 03:16:45;;;;;;;3.17;1.40;;;21.10;77.90;;;;;;4917797;29;20032;-79
2022/07/11 03:19:11;;;;;;;4.68;1.67;;;21.10;77.10;;;;;;4918231;29;20472;-78
2022/07/11 03:21:36;;;;;;;2.95;1.77;;;21.20;77.60;;;;;;4916823;29;20036;-79
2022/07/11 03:24:03;;;;;;;3.60;1.60;;;21.10;77.10;;;;;;4916662;29;20068;-79
2022/07/11 03:26:28;;;;;;;8.75;1.73;;;20.90;77.00;;;;;;4917670;29;20048;-79
2022/07/11 03:28:54;;;;;;;3.00;1.73;;;20.70;77.30;;;;;;4917715;29;20464;-79
2022/07/11 03:31:20;;;;;;;2.40;1.50;;;21.00;77.40;;;;;;4917649;29;20028;-78
2022/07/11 03:33:45;;;;;;;3.45;1.58;;;20.90;77.10;;;;;;4917548;29;20543;-78
2022/07/11 03:36:11;;;;;;;3.45;1.65;;;21.10;77.80;;;;;;4917748;29;20079;-78
2022/07/11 03:38:38;;;;;;;3.30;1.45;;;21.00;77.20;;;;;;4917857;29;20160;-79
2022/07/11 03:41:04;;;;;;;4.00;1.48;;;21.00;77.20;;;;;;4917279;29;20032;-79
2022/07/11 03:43:30;;;;;;;1.83;1.38;;;21.00;77.70;;;;;;4917440;29;20456;-78
2022/07/11 03:45:56;;;;;;;2.58;1.10;;;21.00;77.90;;;;;;4917063;29;20036;-78
2022/07/11 03:48:22;;;;;;;3.78;1.40;;;21.00;77.40;;;;;;4916133;29;20043;-79
2022/07/11 03:50:48;;;;;;;2.10;1.48;;;20.90;76.90;;;;;;4917287;29;20076;-78
2022/07/11 03:53:14;;;;;;;2.83;1.63;;;20.90;78.00;;;;;;4917246;29;20024;-78
2022/07/11 03:55:40;;;;;;;3.22;1.42;;;20.80;77.20;;;;;;4917358;29;20028;-78
2022/07/11 03:58:06;;;;;;;3.97;1.10;;;20.80;77.80;;;;;;4916633;29;20036;-78
2022/07/11 04:00:32;;;;;;;4.53;1.50;;;20.70;77.70;;;;;;4917087;29;20032;-79
2022/07/11 04:02:58;;;;;;;5.32;1.40;;;20.80;77.40;;;;;;4916721;29;20036;-79
2022/07/11 04:05:24;;;;;;;2.65;1.33;;;20.70;77.50;;;;;;4917124;29;20103;-78
2022/07/11 04:07:50;;;;;;;5.32;1.50;;;20.60;78.10;;;;;;4916964;29;20481;-78
2022/07/11 04:10:18;;;;;;;2.47;1.00;;;20.50;78.40;;;;;;4917248;29;20166;-78
2022/07/11 04:12:45;;;;;;;3.78;1.55;;;20.60;78.40;;;;;;4915928;29;20032;-80
2022/07/11 04:15:11;;;;;;;2.00;1.30;;;20.60;79.10;;;;;;4916739;29;20024;-79
2022/07/11 04:17:38;;;;;;;8.57;1.75;;;20.60;79.50;;;;;;4916885;29;20059;-79
2022/07/11 04:20:04;;;;;;;5.70;1.42;;;20.50;79.80;;;;;;4917082;29;20024;-80
2022/07/11 04:22:30;;;;;;;4.47;1.85;;;20.50;80.40;;;;;;4916998;29;20048;-80
2022/07/11 04:24:56;;;;;;;2.10;1.30;;;20.40;80.70;;;;;;4916294;29;20059;-80
2022/07/11 04:27:21;;;;;;;2.35;1.27;;;20.50;80.30;;;;;;4916627;29;20450;-79
2022/07/11 04:29:47;;;;;;;1.77;1.30;;;20.50;80.50;;;;;;4916005;29;20043;-79
2022/07/11 04:32:13;;;;;;;3.38;1.40;;;20.50;80.90;;;;;;4916662;29;20119;-80
2022/07/11 04:34:38;;;;;;;1.92;1.23;;;20.40;81.10;;;;;;4916969;29;20028;-80
2022/07/11 04:37:04;;;;;;;3.28;1.60;;;20.30;80.80;;;;;;4916505;29;20059;-80
2022/07/11 04:39:32;;;;;;;3.60;1.80;;;20.40;80.90;;;;;;4916741;29;20028;-79
2022/07/11 04:41:58;;;;;;;6.70;1.33;;;20.30;81.10;;;;;;4915295;29;20091;-80
2022/07/11 04:44:24;;;;;;;2.83;1.50;;;20.40;80.70;;;;;;4915172;29;20035;-79
2022/07/11 04:46:49;;;;;;;2.58;1.58;;;20.30;80.70;;;;;;4916403;29;20413;-80
2022/07/11 04:49:15;;;;;;;4.28;1.45;;;20.40;80.30;;;;;;4916938;29;20063;-79
2022/07/11 04:51:41;;;;;;;5.03;1.50;;;20.30;80.50;;;;;;4917170;29;20056;-79
2022/07/11 04:54:07;;;;;;;2.67;1.17;;;20.40;80.50;;;;;;4915261;29;20035;-79
2022/07/11 04:56:33;;;;;;;4.47;1.63;;;20.30;81.00;;;;;;4916464;29;20028;-79
2022/07/11 04:58:58;;;;;;;4.93;1.60;;;20.40;81.40;;;;;;4914053;29;20112;-79
2022/07/11 05:01:24;;;;;;;2.78;1.40;;;20.30;80.90;;;;;;4909160;29;20103;-79
2022/07/11 05:03:49;;;;;;;3.40;1.30;;;20.30;81.70;;;;;;4916115;29;20084;-79
2022/07/11 05:06:15;;;;;;;4.32;1.85;;;20.30;82.00;;;;;;4916179;29;20551;-80
2022/07/11 05:08:41;;;;;;;2.78;1.70;;;20.30;82.20;;;;;;4915721;29;20040;-80
2022/07/11 05:11:06;;;;;;;5.28;1.77;;;20.30;82.70;;;;;;4915555;29;20021;-79
2022/07/11 05:13:32;;;;;;;3.80;1.63;;;20.30;82.60;;;;;;4916872;29;20031;-79
2022/07/11 05:15:58;;;;;;;4.55;1.50;;;20.40;83.20;;;;;;4919920;29;20028;-79
2022/07/11 05:18:23;;;;;;;7.25;1.60;;;20.40;83.30;;;;;;4919718;29;20039;-80
2022/07/11 05:20:49;;;;;;;3.78;1.60;;;20.50;83.00;;;;;;4919572;29;20030;-80
2022/07/11 05:23:15;;;;;;;3.10;1.35;;;20.50;84.10;;;;;;4919734;29;20036;-80
2022/07/11 05:25:41;;;;;;;3.83;1.75;;;20.50;83.60;;;;;;4914132;29;20052;-78
2022/07/11 05:28:07;;;;;;;3.80;1.35;;;20.50;83.20;;;;;;4918096;29;20032;-78
2022/07/11 05:30:33;;;;;;;5.10;1.40;;;20.50;84.30;;;;;;4918050;29;20719;-81
2022/07/11 05:32:59;;;;;;;2.22;1.50;;;20.60;84.10;;;;;;4917814;29;20079;-80
2022/07/11 05:35:25;;;;;;;2.92;1.58;;;20.60;84.70;;;;;;4918283;29;20017;-80
2022/07/11 05:37:51;;;;;;;2.83;1.80;;;20.60;84.60;;;;;;4910836;29;20032;-80
2022/07/11 05:40:16;;;;;;;3.30;2.13;;;20.70;85.20;;;;;;4917331;29;20031;-80
2022/07/11 05:42:42;;;;;;;8.48;2.13;;;20.70;85.30;;;;;;4918028;29;20030;-79
2022/07/11 05:45:09;;;;;;;3.75;1.70;;;20.80;86.00;;;;;;4917210;29;20028;-80
2022/07/11 05:47:35;;;;;;;3.85;1.52;;;20.80;87.20;;;;;;4923908;29;20095;-85
2022/07/11 05:50:00;;;;;;;5.57;1.60;;;20.90;85.00;;;;;;4918850;29;20024;-91
2022/07/11 05:52:26;;;;;;;5.60;1.98;;;20.90;83.60;;;;;;4918590;29;20392;-84
2022/07/11 05:54:51;;;;;;;3.63;1.15;;;21.10;82.80;;;;;;4917688;29;20508;-84
2022/07/11 05:57:17;;;;;;;3.67;1.70;;;21.20;77.40;;;;;;4919248;29;20102;-84
2022/07/11 05:59:45;;;;;;;6.38;1.60;;;21.30;78.70;;;;;;4917936;29;20035;-85
2022/07/11 06:02:11;;;;;;;5.43;1.55;;;21.40;76.40;;;;;;4917039;29;20058;-84
2022/07/11 06:04:37;;;;;;;4.95;1.70;;;21.40;76.40;;;;;;4924459;29;20027;-84
2022/07/11 06:07:04;;;;;;;5.10;1.73;;;21.40;76.30;;;;;;4918284;29;20030;-84
2022/07/11 06:09:30;;;;;;;3.05;1.42;;;21.40;76.90;;;;;;4915439;29;20575;-85
2022/07/11 06:11:55;;;;;;;10.27;1.70;;;21.40;77.10;;;;;;4916677;29;20107;-92
2022/07/11 06:14:22;;;;;;;5.80;1.90;;;21.40;77.60;;;;;;4918715;29;20047;-82
2022/07/11 06:16:48;;;;;;;2.80;1.50;;;21.50;77.10;;;;;;4918294;29;20017;-79
2022/07/11 06:19:14;;;;;;;4.10;1.70;;;21.50;77.10;;;;;;4916502;29;20448;-79
2022/07/11 06:21:40;;;;;;;5.47;2.00;;;21.40;77.80;;;;;;4916103;29;20115;-79
2022/07/11 06:24:06;;;;;;;4.85;1.67;;;21.50;77.30;;;;;;4922205;29;20031;-79
2022/07/11 06:26:32;;;;;;;5.55;1.83;;;21.50;77.80;;;;;;4916751;29;20056;-79
2022/07/11 06:28:57;;;;;;;2.70;1.67;;;21.50;77.20;;;;;;4917811;29;20064;-80
2022/07/11 06:31:25;;;;;;;5.95;1.73;;;21.60;77.30;;;;;;4918821;29;20388;-88
2022/07/11 06:33:54;;;;;;;6.80;2.00;;;21.60;76.80;;;;;;4917930;29;20024;-89
2022/07/11 06:36:29;;;;;;;8.80;1.70;;;21.70;76.40;;;;;;4916978;29;20036;-88
2022/07/11 06:38:54;;;;;;;5.60;1.67;;;21.80;75.60;;;;;;4918610;29;20107;-87
2022/07/11 06:41:21;;;;;;;3.90;1.58;;;21.90;74.90;;;;;;4918252;29;20160;-87
2022/07/11 06:43:47;;;;;;;6.65;1.70;;;21.90;75.80;;;;;;4917050;29;20039;-88
2022/07/11 06:46:15;;;;;;;7.63;1.67;;;22.00;76.20;;;;;;4918494;29;20036;-88
2022/07/11 06:48:41;;;;;;;5.13;1.80;;;22.10;75.70;;;;;;4916923;29;20028;-88
2022/07/11 06:51:07;;;;;;;4.85;1.70;;;22.10;75.30;;;;;;4917186;29;20020;-88
2022/07/11 06:53:33;;;;;;;4.45;1.98;;;22.20;75.10;;;;;;4916828;29;20038;-88
2022/07/11 06:55:58;;;;;;;2.65;1.50;;;22.30;75.40;;;;;;4916822;29;20059;-88
2022/07/11 06:58:33;;;;;;;3.30;1.60;;;22.30;74.60;;;;;;4917082;29;20447;-89
2022/07/11 07:01:04;;;;;;;5.00;1.70;;;22.30;74.20;;;;;;4918134;29;20032;-89
2022/07/11 07:03:32;;;;;;;5.40;1.80;;;22.30;74.70;;;;;;4918808;29;20107;-87
2022/07/11 07:05:58;;;;;;;7.38;2.05;;;22.30;74.00;;;;;;4915997;29;20436;-87
2022/07/11 07:08:25;;;;;;;2.72;1.42;;;22.40;74.00;;;;;;4916273;29;20028;-87
2022/07/11 07:10:52;;;;;;;8.55;2.00;;;22.50;74.60;;;;;;4917117;29;20024;-91
2022/07/11 07:13:18;;;;;;;5.80;1.75;;;22.60;74.60;;;;;;4912223;29;20028;-76
2022/07/11 07:15:44;;;;;;;4.25;2.00;;;22.60;73.80;;;;;;4914748;29;20027;-76
2022/07/11 07:18:09;;;;;;;4.57;1.80;;;22.70;75.10;;;;;;4915577;29;20024;-79
2022/07/11 07:20:35;;;;;;;6.13;1.73;;;22.80;74.20;;;;;;4916071;29;20477;-79
2022/07/11 07:23:00;;;;;;;8.45;1.90;;;22.90;74.10;;;;;;4916727;29;20468;-80
2022/07/11 07:25:26;;;;;;;5.15;1.50;;;23.00;74.40;;;;;;4913653;29;20096;-78
2022/07/11 07:27:52;;;;;;;5.05;1.60;;;23.10;73.20;;;;;;4915211;29;20044;-79
2022/07/11 07:30:18;;;;;;;3.97;1.88;;;23.20;73.30;;;;;;4914766;29;20032;-79
2022/07/11 07:32:43;;;;;;;5.65;1.48;;;23.30;73.00;;;;;;4909155;29;20480;-78
2022/07/11 07:35:09;;;;;;;6.57;1.52;;;23.40;72.10;;;;;;4916343;29;20058;-81
2022/07/11 07:37:34;;;;;;;4.93;1.63;;;23.60;71.00;;;;;;4916397;29;20028;-80
2022/07/11 07:40:00;;;;;;;3.22;1.50;;;23.70;70.70;;;;;;4915327;29;20053;-81
2022/07/11 07:42:26;;;;;;;5.55;1.60;;;23.80;70.80;;;;;;4928803;29;20035;-81
2022/07/11 07:44:52;;;;;;;3.55;1.65;;;24.00;70.10;;;;;;4921592;29;20107;-79
2022/07/11 07:47:18;;;;;;;6.45;1.55;;;24.10;69.80;;;;;;4913404;29;20116;-78
2022/07/11 07:49:43;;;;;;;4.60;1.52;;;24.30;69.60;;;;;;4915370;29;20028;-80
2022/07/11 07:52:09;;;;;;;8.63;1.90;;;24.40;67.50;;;;;;4916119;29;20783;-80
2022/07/11 07:54:34;;;;;;;7.88;1.70;;;24.40;68.40;;;;;;4914556;29;20516;-78
2022/07/11 07:57:00;;;;;;;7.85;1.85;;;24.50;68.30;;;;;;4915812;29;20156;-82
2022/07/11 07:59:26;;;;;;;5.35;1.48;;;24.60;67.70;;;;;;4916652;29;20099;-82
2022/07/11 08:01:52;;;;;;;6.97;1.85;;;24.70;67.80;;;;;;4916128;29;20040;-82
2022/07/11 08:04:18;;;;;;;5.07;1.77;;;24.90;66.70;;;;;;4915693;29;20103;-87
2022/07/11 08:06:43;;;;;;;3.70;1.23;;;24.90;66.00;;;;;;4913246;29;20583;-80
2022/07/11 08:09:10;;;;;;;4.97;1.40;;;24.90;65.90;;;;;;4915420;29;20028;-80
2022/07/11 08:11:35;;;;;;;6.55;1.85;;;25.20;65.20;;;;;;4915647;29;20024;-81
2022/07/11 08:14:03;;;;;;;4.20;1.42;;;25.40;64.60;;;;;;4914100;29;20024;-85
2022/07/11 08:16:30;;;;;;;6.65;1.60;;;25.50;64.20;;;;;;4915666;29;20031;-88
2022/07/11 08:18:56;;;;;;;2.55;1.20;;;25.80;63.00;;;;;;4915652;29;20035;-79
2022/07/11 08:21:22;;;;;;;7.97;1.15;;;26.00;62.20;;;;;;4916023;29;20039;-77
2022/07/11 08:23:48;;;;;;;7.45;1.60;;;26.20;61.40;;;;;;4921333;29;20024;-78
2022/07/11 08:26:15;;;;;;;3.72;1.60;;;26.40;62.00;;;;;;4915039;29;20060;-79
2022/07/11 08:28:40;;;;;;;4.43;1.80;;;26.60;60.50;;;;;;4914294;29;20484;-78
2022/07/11 08:31:06;;;;;;;10.15;2.00;;;26.80;59.90;;;;;;4914764;29;20059;-80
2022/07/11 08:33:32;;;;;;;6.00;1.70;;;27.00;58.80;;;;;;4912876;29;20185;-76
2022/07/11 08:35:57;;;;;;;2.10;1.20;;;27.30;59.30;;;;;;4914780;29;20054;-81
2022/07/11 08:38:23;;;;;;;2.95;1.30;;;27.60;59.00;;;;;;4912920;29;20028;-79
2022/07/11 08:40:50;;;;;;;10.52;1.90;;;27.80;57.90;;;;;;4915003;29;20028;-80
2022/07/11 08:43:21;;;;;;;6.50;1.65;;;28.10;57.80;;;;;;4912710;29;20029;-76
2022/07/11 08:45:47;;;;;;;4.88;1.73;;;28.30;56.50;;;;;;4913882;29;20028;-77
2022/07/11 08:48:13;;;;;;;5.30;1.33;;;28.50;56.40;;;;;;4916450;29;20051;-80
2022/07/11 08:50:39;;;;;;;8.07;1.60;;;28.60;55.30;;;;;;4919586;29;20023;-79
2022/07/11 08:53:05;;;;;;;4.95;1.80;;;28.90;55.50;;;;;;4918361;29;20028;-80
2022/07/11 08:55:31;;;;;;;4.90;1.67;;;29.10;54.50;;;;;;4917986;29;20488;-77
2022/07/11 08:57:58;;;;;;;10.65;1.55;;;29.40;54.70;;;;;;4918835;29;20028;-79
2022/07/11 09:00:24;;;;;;;6.28;1.50;;;29.60;53.90;;;;;;4914607;29;20027;-78
2022/07/11 09:02:49;;;;;;;4.55;1.52;;;29.60;52.50;;;;;;4919707;29;20020;-79
2022/07/11 09:05:15;;;;;;;6.25;1.48;;;29.80;52.90;;;;;;4915748;29;20020;-79
2022/07/11 09:07:49;;;;;;;2.50;1.40;;;29.80;52.40;;;;;;4917948;29;20110;-78
2022/07/11 09:10:16;;;;;;;3.47;1.58;;;30.10;52.80;;;;;;4917371;29;20400;-78
2022/07/11 09:13:03;;;;;;;3.42;1.30;;;30.10;51.50;;;;;;4918994;29;20048;-78
2022/07/11 09:15:33;;;;;;;2.95;1.40;;;30.00;50.70;;;;;;4932409;29;20445;-79
2022/07/11 09:17:59;;;;;;;6.57;1.67;;;30.20;49.90;;;;;;4919107;29;20031;-79
2022/07/11 09:20:25;;;;;;;8.07;1.10;;;30.40;49.10;;;;;;4916343;29;20036;-78
2022/07/11 09:25:43;;;;;;;5.07;1.08;;;30.80;50.00;;;;;;4918114;29;20063;-79
2022/07/11 09:28:09;;;;;;;2.20;1.30;;;31.20;49.50;;;;;;4917594;29;20047;-78
2022/07/11 09:30:41;;;;;;;4.70;1.45;;;31.00;48.70;;;;;;4918023;29;20059;-79
2022/07/11 09:33:09;;;;;;;8.27;1.30;;;31.10;47.80;;;;;;4914474;29;20020;-79
2022/07/11 09:35:36;;;;;;;5.25;1.30;;;31.50;49.60;;;;;;4911549;29;20032;-78
2022/07/11 09:38:06;;;;;;;2.47;1.38;;;31.50;46.80;;;;;;4920688;29;20111;-80
2022/07/11 09:40:32;;;;;;;6.78;1.30;;;31.80;47.30;;;;;;4918616;29;20107;-79
2022/07/11 09:43:00;;;;;;;2.60;1.17;;;31.90;45.50;;;;;;4917688;29;20428;-77
2022/07/11 09:45:28;;;;;;;5.07;1.70;;;32.00;45.60;;;;;;4917447;29;20485;-77
2022/07/11 09:47:57;;;;;;;2.55;1.25;;;32.10;46.60;;;;;;4917568;29;20107;-76
2022/07/11 09:50:29;;;;;;;2.80;1.20;;;32.40;47.80;;;;;;4917696;29;20055;-77
2022/07/11 09:53:02;;;;;;;2.22;1.23;;;32.50;45.80;;;;;;4916582;29;20047;-76
2022/07/11 09:55:29;;;;;;;2.95;1.50;;;32.50;45.20;;;;;;4917107;29;20073;-77
2022/07/11 09:57:55;;;;;;;7.85;1.30;;;32.10;46.40;;;;;;4917852;29;20028;-77
2022/07/11 10:00:21;;;;;;;3.08;1.15;;;32.50;45.60;;;;;;4917228;29;20047;-77
2022/07/11 10:02:47;;;;;;;1.85;1.05;;;32.70;46.30;;;;;;4922248;29;20028;-79
2022/07/11 10:05:12;;;;;;;2.50;1.23;;;32.90;45.30;;;;;;4923502;29;20036;-75
2022/07/11 10:07:38;;;;;;;3.38;1.10;;;32.20;44.40;;;;;;4916815;29;20468;-75
2022/07/11 10:10:06;;;;;;;4.40;1.20;;;32.40;45.30;;;;;;4917125;29;20377;-74
2022/07/11 10:12:33;;;;;;;4.10;1.35;;;31.50;46.90;;;;;;4917516;29;20071;-77
2022/07/11 10:15:04;;;;;;;7.70;1.33;;;31.60;46.60;;;;;;4913773;29;20345;-76
2022/07/11 10:17:43;;;;;;;5.70;1.40;;;32.30;44.90;;;;;;4917022;29;20024;-80
2022/07/11 10:20:38;;;;;;;5.00;1.23;;;32.60;45.90;;;;;;4915869;29;20456;-78
2022/07/11 10:23:20;;;;;;;1.67;1.25;;;32.30;46.20;;;;;;4916547;29;20052;-75
2022/07/11 10:26:07;;;;;;;4.10;1.20;;;32.60;46.60;;;;;;4918488;29;20043;-77
2022/07/11 10:28:47;;;;;;;3.92;1.20;;;32.70;46.00;;;;;;4916571;29;20472;-77
2022/07/11 10:31:23;;;;;;;3.65;1.33;;;33.10;44.70;;;;;;4914671;29;20060;-77
2022/07/11 10:34:06;;;;;;;2.65;1.25;;;32.90;44.50;;;;;;4915563;29;20577;-77
2022/07/11 10:36:41;;;;;;;3.60;1.20;;;32.60;45.20;;;;;;4918020;29;20031;-81
2022/07/11 10:39:16;;;;;;;3.50;1.30;;;32.50;45.10;;;;;;4917964;29;20035;-76
2022/07/11 10:41:42;;;;;;;8.18;1.27;;;32.80;44.40;;;;;;4917317;29;20116;-80
2022/07/11 10:44:08;;;;;;;3.40;1.30;;;33.30;43.70;;;;;;4914083;29;20543;-81
2022/07/11 10:46:35;;;;;;;3.80;1.30;;;33.50;43.60;;;;;;4913512;29;20111;-81
2022/07/11 10:49:13;;;;;;;4.30;1.00;;;33.30;44.00;;;;;;4917713;29;20043;-80
2022/07/11 10:51:59;;;;;;;5.70;1.20;;;32.30;44.70;;;;;;4918001;29;20043;-80
2022/07/11 10:54:43;;;;;;;2.88;1.20;;;32.70;45.00;;;;;;4917621;29;20024;-78
2022/07/11 10:57:17;;;;;;;4.85;1.30;;;33.40;45.10;;;;;;4917842;29;20020;-78
2022/07/11 11:00:08;;;;;;;5.03;1.15;;;33.80;43.30;;;;;;4917845;29;20032;-78
2022/07/11 11:03:00;;;;;;;2.28;1.10;;;34.30;41.50;;;;;;4917809;29;20039;-81
2022/07/11 11:05:42;;;;;;;3.00;1.40;;;34.40;41.00;;;;;;4918270;29;20032;-81
2022/07/11 11:08:36;;;;;;;5.25;1.25;;;34.00;40.50;;;;;;4905325;29;20039;-80
2022/07/11 11:11:23;;;;;;;5.38;1.20;;;34.30;41.20;;;;;;4915193;29;20031;-76
2022/07/11 11:14:26;;;;;;;4.43;1.20;;;34.60;40.60;;;;;;4915260;29;20051;-75
2022/07/11 11:16:52;;;;;;;2.35;1.27;;;35.00;41.20;;;;;;4914232;29;20063;-76
2022/07/11 11:19:46;;;;;;;2.38;1.10;;;35.10;40.10;;;;;;4916484;29;20036;-75
2022/07/11 11:22:15;;;;;;;3.20;1.42;;;34.90;39.60;;;;;;4915290;29;20036;-74
2022/07/11 11:24:43;;;;;;;1.75;1.13;;;34.60;39.70;;;;;;4915441;29;20107;-75
2022/07/11 11:27:18;;;;;;;6.65;1.10;;;34.20;40.10;;;;;;4916188;29;20070;-75
2022/07/11 11:29:44;;;;;;;4.47;1.30;;;34.40;40.90;;;;;;4915052;29;20044;-75
2022/07/11 11:32:10;;;;;;;2.05;1.20;;;34.40;41.50;;;;;;4914534;29;20424;-75
2022/07/11 11:34:36;;;;;;;4.30;1.25;;;34.00;40.50;;;;;;4922334;29;20032;-75
2022/07/11 11:37:02;;;;;;;3.53;1.20;;;34.50;40.00;;;;;;4916067;29;20047;-74
2022/07/11 11:39:32;;;;;;;2.47;1.17;;;35.10;41.50;;;;;;4915084;29;20098;-75
2022/07/11 11:42:12;;;;;;;3.50;1.33;;;34.60;39.80;;;;;;4915522;29;20059;-75
2022/07/11 11:45:12;;;;;;;4.80;1.20;;;34.50;40.50;;;;;;4914673;29;20397;-75
2022/07/11 11:47:50;;;;;;;4.78;1.30;;;34.80;40.70;;;;;;4910997;29;20087;-75
2022/07/11 11:50:16;;;;;;;2.83;1.13;;;35.20;40.10;;;;;;4912608;29;20143;-75
2022/07/11 11:52:42;;;;;;;8.30;1.35;;;35.00;39.80;;;;;;4913079;29;20099;-75
2022/07/11 11:55:11;;;;;;;6.82;1.50;;;35.00;39.60;;;;;;4913479;29;20516;-75
2022/07/11 11:57:39;;;;;;;2.95;1.25;;;34.70;40.90;;;;;;4914311;29;20048;-74
2022/07/11 12:00:19;;;;;;;1.75;0.90;;;34.80;41.00;;;;;;4912212;29;20024;-75
2022/07/11 12:02:45;;;;;;;3.20;1.33;;;35.00;39.80;;;;;;4887117;29;20076;-75
2022/07/11 12:05:11;;;;;;;2.42;1.38;;;34.90;39.80;;;;;;4912245;29;20024;-75
2022/07/11 12:07:36;;;;;;;4.95;1.42;;;35.10;39.40;;;;;;4902174;29;20040;-75
2022/07/11 12:10:04;;;;;;;2.70;1.33;;;35.20;40.10;;;;;;4912061;29;20048;-75
2022/07/11 12:12:43;;;;;;;5.65;2.00;;;35.50;39.00;;;;;;4919282;29;20040;-75
2022/07/11 12:16:39;;;;;;;6.28;1.60;;;35.60;38.90;;;;;;4913692;29;20024;-75
2022/07/11 12:18:21;;;;;;;3.10;1.10;;;36.00;39.70;;;;;;4907735;29;20036;-75
2022/07/11 12:20:46;;;;;;;3.13;1.65;;;35.90;38.90;;;;;;4912673;29;20040;-75
2022/07/11 12:23:16;;;;;;;3.08;1.13;;;35.70;39.70;;;;;;4914719;29;20036;-75
2022/07/11 12:25:43;;;;;;;3.50;1.25;;;35.30;39.10;;;;;;4911362;29;20083;-74
2022/07/11 12:28:09;;;;;;;3.67;1.15;;;35.70;39.20;;;;;;4912956;29;20092;-76
2022/07/11 12:30:36;;;;;;;2.80;1.40;;;36.00;39.30;;;;;;4914935;29;20016;-75
2022/07/11 12:33:10;;;;;;;3.13;1.00;;;36.00;38.20;;;;;;4913566;29;20460;-75
2022/07/11 12:35:51;;;;;;;1.75;1.10;;;36.30;38.20;;;;;;4917113;29;20556;-77
2022/07/11 12:38:17;;;;;;;2.20;1.20;;;36.10;37.50;;;;;;4915399;29;20400;-75
2022/07/11 12:41:04;;;;;;;2.03;1.13;;;36.20;36.80;;;;;;4914217;29;20042;-76
2022/07/11 12:46:49;;;;;;;4.00;1.20;;;36.10;38.40;;;;;;4908205;29;20043;-75
2022/07/11 12:49:15;;;;;;;6.60;1.27;;;36.30;37.70;;;;;;4895819;29;20044;-75
2022/07/11 12:51:43;;;;;;;2.30;1.30;;;36.20;38.10;;;;;;4913818;29;20032;-74
2022/07/11 12:54:14;;;;;;;2.20;1.40;;;36.10;37.00;;;;;;4912669;29;20059;-75
2022/07/11 12:56:51;;;;;;;2.70;1.00;;;36.00;37.40;;;;;;4911088;29;20047;-75